Observation data for Saint Lawrence on 01/17/2021      Previous  Date  Next       Current Mesonet Observations  Soil Data  Daily Summary Page  Observations in Plain Language
KST1 170600Z 09008KT 03/M04 A3006 RMK A01 T00281042  RH  060%=      5-min Rain = 0
KST1 170605Z 09008KT 02/M04 A3006 RMK A01 T00231043  RH  062%=      5-min Rain = 0
KST1 170610Z 09008KT 02/M04 A3007 RMK A01 T00181043  RH  065%=      5-min Rain = 0
KST1 170615Z 09008KT 02/M04 A3007 RMK A01 T00181044  RH  064%=      5-min Rain = 0
KST1 170620Z 09009KT 02/M05 A3007 RMK A01 T00211046  RH  062%=      5-min Rain = 0
KST1 170625Z 09009KT 02/M05 A3007 RMK A01 T00201046  RH  062%=      5-min Rain = 0
KST1 170630Z 09008KT 02/M04 A3007 RMK A01 T00211044  RH  063%=      5-min Rain = 0
KST1 170635Z 08008KT 02/M04 A3007 RMK A01 T00231044  RH  062%=      5-min Rain = 0
KST1 170640Z 08008KT 03/M05 A3007 RMK A01 T00261045  RH  060%=      5-min Rain = 0
KST1 170645Z 09007KT 02/M05 A3007 RMK A01 T00201046  RH  063%=      5-min Rain = 0
KST1 170650Z 09007KT 01/M05 A3007 RMK A01 T00131046  RH  066%=      5-min Rain = 0
KST1 170655Z 09007KT 01/M05 A3007 RMK A01 T00131046  RH  065%=      5-min Rain = 0
KST1 170700Z 09007KT 01/M05 A3007 RMK A01 T00141048  RH  064%=      5-min Rain = 0
KST1 170705Z 09008KT 01/M05 A3007 RMK A01 T00111049  RH  065%=      5-min Rain = 0
KST1 170710Z 09007KT 01/M05 A3008 RMK A01 T00111050  RH  064%=      5-min Rain = 0
KST1 170715Z 08006KT 01/M05 A3008 RMK A01 T00121050  RH  064%=      5-min Rain = 0
KST1 170720Z 05006KT 00/M05 A3008 RMK A01 T00021050  RH  069%=      5-min Rain = 0
KST1 170725Z 05006KT M00/M05 A3008 RMK A01 T10021050  RH  071%=      5-min Rain = 0
KST1 170730Z 07006KT M00/M05 A3007 RMK A01 T10011049  RH  071%=      5-min Rain = 0
KST1 170735Z 06005KT 00/M05 A3008 RMK A01 T00031051  RH  067%=      5-min Rain = 0
KST1 170740Z 32004KT M01/M06 A3008 RMK A01 T10081055  RH  072%=      5-min Rain = 0
KST1 170745Z 33005KT M01/M05 A3009 RMK A01 T10101052  RH  074%=      5-min Rain = 0
KST1 170750Z 33009KT M01/M05 A3009 RMK A01 T10101051  RH  075%=      5-min Rain = 0
KST1 170755Z 34011KT 00/M05 A301 RMK A01 T00031048  RH  069%=      5-min Rain = 0
KST1 170800Z 35007KT 01/M05 A301 RMK A01 T00141050  RH  063%=      5-min Rain = 0
KST1 170805Z 34007KT 01/M05 A301 RMK A01 T00071050  RH  066%=      5-min Rain = 0
KST1 170810Z 33004KT 01/M05 A301 RMK A01 T00051048  RH  068%=      5-min Rain = 0
KST1 170815Z 33003KT 00/M05 A301 RMK A01 T00011049  RH  070%=      5-min Rain = 0
KST1 170820Z 33003KT M00/M05 A301 RMK A01 T10011050  RH  070%=      5-min Rain = 0
KST1 170825Z 34003KT M00/M05 A301 RMK A01 T10031049  RH  072%=      5-min Rain = 0
KST1 170830Z 34004KT M00/M05 A301 RMK A01 T10041049  RH  073%=      5-min Rain = 0
KST1 170835Z 35005KT M01/M05 A301 RMK A01 T10081050  RH  074%=      5-min Rain = 0
KST1 170840Z 34006KT M01/M05 A301 RMK A01 T10141053  RH  076%=      5-min Rain = 0
KST1 170845Z 33007KT M02/M05 A3011 RMK A01 T10181053  RH  078%=      5-min Rain = 0
KST1 170850Z 33007KT M02/M05 A3011 RMK A01 T10191052  RH  079%=      5-min Rain = 0
KST1 170855Z 33007KT M02/M05 A3011 RMK A01 T10191051  RH  079%=      5-min Rain = 0
KST1 170900Z 33005KT M02/M05 A3011 RMK A01 T10201052  RH  079%=      5-min Rain = 0
KST1 170905Z 33004KT M02/M05 A301 RMK A01 T10221053  RH  080%=      5-min Rain = 0
KST1 170910Z 33004KT M02/M05 A301 RMK A01 T10211051  RH  081%=      5-min Rain = 0
KST1 170915Z 33004KT M02/M05 A301 RMK A01 T10201051  RH  080%=      5-min Rain = 0
KST1 170920Z 33004KT M02/M05 A301 RMK A01 T10211051  RH  080%=      5-min Rain = 0
KST1 170925Z 33003KT M02/M05 A3009 RMK A01 T10201050  RH  081%=      5-min Rain = 0
KST1 170930Z 33002KT M02/M05 A3009 RMK A01 T10171048  RH  080%=      5-min Rain = 0
KST1 170935Z 31002KT M02/M05 A3009 RMK A01 T10151048  RH  079%=      5-min Rain = 0
KST1 170940Z 31000KT M02/M05 A3008 RMK A01 T10151048  RH  079%=      5-min Rain = 0
KST1 170945Z 00000KT M02/M05 A3008 RMK A01 T10151050  RH  078%=      5-min Rain = 0
KST1 170950Z 00000KT M02/M05 A3008 RMK A01 T10151048  RH  079%=      5-min Rain = 0
KST1 170955Z 00000KT M02/M05 A3007 RMK A01 T10161051  RH  078%=      5-min Rain = 0
KST1 171000Z 00000KT M02/M05 A3007 RMK A01 T10191051  RH  079%=      5-min Rain = 0
KST1 171005Z 27001KT M02/M05 A3007 RMK A01 T10231053  RH  080%=      5-min Rain = 0
KST1 171010Z 27003KT M03/M06 A3007 RMK A01 T10261056  RH  081%=      5-min Rain = 0
KST1 171015Z 28004KT M03/M06 A3008 RMK A01 T10331060  RH  083%=      5-min Rain = 0
KST1 171020Z 29004KT M04/M06 A3008 RMK A01 T10351059  RH  084%=      5-min Rain = 0
KST1 171025Z 30007KT M04/M06 A3008 RMK A01 T10351058  RH  085%=      5-min Rain = 0
KST1 171030Z 30008KT M03/M05 A3009 RMK A01 T10321053  RH  086%=      5-min Rain = 0
KST1 171035Z 31008KT M03/M05 A3009 RMK A01 T10281052  RH  085%=      5-min Rain = 0
KST1 171040Z 31009KT M03/M05 A3009 RMK A01 T10261050  RH  084%=      5-min Rain = 0
KST1 171045Z 32009KT M02/M05 A3009 RMK A01 T10231050  RH  083%=      5-min Rain = 0
KST1 171050Z 33008KT M02/M05 A3009 RMK A01 T10211049  RH  082%=      5-min Rain = 0
KST1 171055Z 33008KT M02/M05 A301 RMK A01 T10191049  RH  081%=      5-min Rain = 0
KST1 171100Z 33008KT M02/M05 A301 RMK A01 T10191050  RH  080%=      5-min Rain = 0
KST1 171105Z 33007KT M02/M05 A301 RMK A01 T10201050  RH  081%=      5-min Rain = 0
KST1 171110Z 33007KT M02/M05 A301 RMK A01 T10221051  RH  081%=      5-min Rain = 0
KST1 171115Z 33006KT M02/M05 A301 RMK A01 T10231051  RH  082%=      5-min Rain = 0
KST1 171120Z 33006KT M03/M05 A301 RMK A01 T10251052  RH  082%=      5-min Rain = 0
KST1 171125Z 33007KT M03/M05 A301 RMK A01 T10261052  RH  083%=      5-min Rain = 0
KST1 171130Z 33007KT M03/M05 A301 RMK A01 T10261053  RH  083%=      5-min Rain = 0
KST1 171135Z 34007KT M03/M05 A301 RMK A01 T10271054  RH  083%=      5-min Rain = 0
KST1 171140Z 33007KT M03/M06 A301 RMK A01 T10281055  RH  083%=      5-min Rain = 0
KST1 171145Z 33008KT M03/M06 A3011 RMK A01 T10291055  RH  083%=      5-min Rain = 0
KST1 171150Z 33008KT M03/M05 A3011 RMK A01 T10291054  RH  084%=      5-min Rain = 0
KST1 171155Z 34008KT M03/M06 A3011 RMK A01 T10301055  RH  083%=      5-min Rain = 0
KST1 171200Z 34007KT M03/M06 A3011 RMK A01 T10321057  RH  084%=      5-min Rain = 0
KST1 171205Z 34007KT M03/M06 A3011 RMK A01 T10331056  RH  085%=      5-min Rain = 0
KST1 171210Z 34006KT M03/M06 A3011 RMK A01 T10341056  RH  085%=      5-min Rain = 0
KST1 171215Z 34006KT M03/M06 A3011 RMK A01 T10331056  RH  085%=      5-min Rain = 0
KST1 171220Z 34008KT M03/M05 A3012 RMK A01 T10311054  RH  085%=      5-min Rain = 0
KST1 171225Z 34006KT M03/M06 A3011 RMK A01 T10321057  RH  084%=      5-min Rain = 0
KST1 171230Z 33006KT M03/M06 A3012 RMK A01 T10341057  RH  085%=      5-min Rain = 0
KST1 171235Z 33006KT M03/M06 A3012 RMK A01 T10321056  RH  085%=      5-min Rain = 0
KST1 171240Z 33005KT M03/M06 A3012 RMK A01 T10301055  RH  084%=      5-min Rain = 0
KST1 171245Z 33004KT M03/M06 A3012 RMK A01 T10321057  RH  084%=      5-min Rain = 0
KST1 171250Z 33005KT M03/M06 A3012 RMK A01 T10331057  RH  084%=      5-min Rain = 0
KST1 171255Z 33006KT M03/M06 A3013 RMK A01 T10341058  RH  085%=      5-min Rain = 0
KST1 171300Z 32006KT M04/M06 A3013 RMK A01 T10351058  RH  085%=      5-min Rain = 0
KST1 171305Z 32007KT M04/M06 A3013 RMK A01 T10351058  RH  085%=      5-min Rain = 0
KST1 171310Z 32007KT M04/M06 A3013 RMK A01 T10351058  RH  085%=      5-min Rain = 0
KST1 171315Z 32006KT M04/M06 A3013 RMK A01 T10351058  RH  085%=      5-min Rain = 0
KST1 171320Z 30005KT M04/M06 A3013 RMK A01 T10391062  RH  085%=      5-min Rain = 0
KST1 171325Z 29005KT M04/M06 A3014 RMK A01 T10421063  RH  086%=      5-min Rain = 0
KST1 171330Z 26005KT M04/M06 A3014 RMK A01 T10421062  RH  087%=      5-min Rain = 0
KST1 171335Z 26005KT M04/M06 A3014 RMK A01 T10411061  RH  087%=      5-min Rain = 0
KST1 171340Z 24005KT M04/M06 A3015 RMK A01 T10421063  RH  087%=      5-min Rain = 0
KST1 171345Z 25005KT M04/M06 A3015 RMK A01 T10431062  RH  088%=      5-min Rain = 0
KST1 171350Z 25006KT M04/M06 A3015 RMK A01 T10421061  RH  087%=      5-min Rain = 0
KST1 171355Z 26007KT M04/M06 A3015 RMK A01 T10431062  RH  087%=      5-min Rain = 0
KST1 171400Z 27006KT M04/M06 A3016 RMK A01 T10431063  RH  087%=      5-min Rain = 0
KST1 171405Z 28006KT M04/M06 A3016 RMK A01 T10431062  RH  088%=      5-min Rain = 0
KST1 171410Z 29005KT M04/M06 A3016 RMK A01 T10391058  RH  088%=      5-min Rain = 0
KST1 171415Z 29005KT M04/M06 A3016 RMK A01 T10361056  RH  087%=      5-min Rain = 0
KST1 171420Z 28004KT M03/M05 A3016 RMK A01 T10321053  RH  086%=      5-min Rain = 0
KST1 171425Z 28004KT M03/M05 A3016 RMK A01 T10301053  RH  086%=      5-min Rain = 0
KST1 171430Z 27004KT M03/M05 A3016 RMK A01 T10281050  RH  086%=      5-min Rain = 0
KST1 171435Z 27004KT M03/M05 A3016 RMK A01 T10251047  RH  085%=      5-min Rain = 0
KST1 171440Z 28004KT M02/M05 A3016 RMK A01 T10201045  RH  084%=      5-min Rain = 0
KST1 171445Z 29004KT M02/M05 A3016 RMK A01 T10171045  RH  082%=      5-min Rain = 0
KST1 171450Z 29004KT M01/M04 A3016 RMK A01 T10131042  RH  081%=      5-min Rain = 0
KST1 171455Z 30004KT M01/M04 A3016 RMK A01 T10091042  RH  080%=      5-min Rain = 0
KST1 171500Z 31004KT M01/M04 A3016 RMK A01 T10061040  RH  079%=      5-min Rain = 0
KST1 171505Z 30005KT M00/M04 A3016 RMK A01 T10021038  RH  078%=      5-min Rain = 0
KST1 171510Z 31004KT 00/M03 A3016 RMK A01 T00031034  RH  077%=      5-min Rain = 0
KST1 171515Z 31004KT 01/M03 A3017 RMK A01 T00061034  RH  075%=      5-min Rain = 0
KST1 171520Z 32005KT 01/M03 A3017 RMK A01 T00081033  RH  075%=      5-min Rain = 0
KST1 171525Z 32005KT 01/M03 A3018 RMK A01 T00101032  RH  075%=      5-min Rain = 0
KST1 171530Z 32005KT 01/M03 A3018 RMK A01 T00131030  RH  074%=      5-min Rain = 0
KST1 171535Z 33005KT 02/M03 A3018 RMK A01 T00171030  RH  072%=      5-min Rain = 0
KST1 171540Z 34005KT 02/M03 A3018 RMK A01 T00211028  RH  071%=      5-min Rain = 0
KST1 171545Z 34005KT 03/M03 A3018 RMK A01 T00261026  RH  069%=      5-min Rain = 0
KST1 171550Z 34006KT 03/M03 A3018 RMK A01 T00281025  RH  069%=      5-min Rain = 0
KST1 171555Z 34006KT 03/M02 A3018 RMK A01 T00321023  RH  068%=      5-min Rain = 0
KST1 171600Z 35005KT 04/M02 A3018 RMK A01 T00371022  RH  066%=      5-min Rain = 0
KST1 171605Z 35005KT 04/M02 A3018 RMK A01 T00411022  RH  065%=      5-min Rain = 0
KST1 171610Z 35005KT 05/M02 A3019 RMK A01 T00461020  RH  063%=      5-min Rain = 0
KST1 171615Z 34005KT 05/M02 A3019 RMK A01 T00511019  RH  061%=      5-min Rain = 0
KST1 171620Z 35007KT 06/M02 A3019 RMK A01 T00581016  RH  059%=      5-min Rain = 0
KST1 171625Z 00009KT 06/M02 A3019 RMK A01 T00641017  RH  057%=      5-min Rain = 0
KST1 171630Z 01009KT 07/M03 A3019 RMK A01 T00671027  RH  052%=      5-min Rain = 0
KST1 171635Z 01008KT 07/M03 A3019 RMK A01 T00681028  RH  051%=      5-min Rain = 0
KST1 171640Z 01008KT 07/M03 A3019 RMK A01 T00691031  RH  049%=      5-min Rain = 0
KST1 171645Z 01007KT 07/M03 A3019 RMK A01 T00721033  RH  048%=      5-min Rain = 0
KST1 171650Z 02006KT 08/M04 A3019 RMK A01 T00751035  RH  046%=      5-min Rain = 0
KST1 171655Z 03006KT 08/M04 A3018 RMK A01 T00781036  RH  045%=      5-min Rain = 0
KST1 171700Z 02005KT 08/M04 A3018 RMK A01 T00801036  RH  044%=      5-min Rain = 0
KST1 171705Z 02006KT 08/M04 A3018 RMK A01 T00791036  RH  044%=      5-min Rain = 0
KST1 171710Z 04004KT 08/M03 A3018 RMK A01 T00831032  RH  045%=      5-min Rain = 0
KST1 171715Z 04003KT 09/M04 A3017 RMK A01 T00861035  RH  043%=      5-min Rain = 0
KST1 171720Z 04004KT 09/M04 A3017 RMK A01 T00881037  RH  041%=      5-min Rain = 0
KST1 171725Z 05004KT 09/M04 A3017 RMK A01 T00931035  RH  041%=      5-min Rain = 0
KST1 171730Z 02005KT 10/M04 A3017 RMK A01 T00961039  RH  039%=      5-min Rain = 0
KST1 171735Z 05005KT 10/M04 A3017 RMK A01 T00991041  RH  037%=      5-min Rain = 0
KST1 171740Z 04006KT 10/M04 A3017 RMK A01 T01011040  RH  037%=      5-min Rain = 0
KST1 171745Z 05005KT 10/M04 A3016 RMK A01 T01021038  RH  038%=      5-min Rain = 0
KST1 171750Z 07005KT 11/M04 A3016 RMK A01 T01061036  RH  037%=      5-min Rain = 0
KST1 171755Z 06006KT 11/M04 A3016 RMK A01 T01081043  RH  035%=      5-min Rain = 0
KST1 171800Z 07005KT 11/M04 A3016 RMK A01 T01071041  RH  035%=      5-min Rain = 0
KST1 171805Z 08004KT 11/M04 A3015 RMK A01 T01091041  RH  035%=      5-min Rain = 0
KST1 171810Z 08003KT 11/M04 A3015 RMK A01 T01101041  RH  035%=      5-min Rain = 0
KST1 171815Z 04004KT 11/M04 A3015 RMK A01 T01141042  RH  034%=      5-min Rain = 0
KST1 171820Z 04004KT 12/M04 A3014 RMK A01 T01151042  RH  033%=      5-min Rain = 0
KST1 171825Z 07003KT 12/M04 A3014 RMK A01 T01161041  RH  033%=      5-min Rain = 0
KST1 171830Z 05004KT 12/M04 A3014 RMK A01 T01171043  RH  033%=      5-min Rain = 0
KST1 171835Z 05006KT 12/M05 A3014 RMK A01 T01201047  RH  031%=      5-min Rain = 0
KST1 171840Z 05003KT 12/M05 A3014 RMK A01 T01211050  RH  030%=      5-min Rain = 0
KST1 171845Z 04006KT 12/M05 A3013 RMK A01 T01241051  RH  029%=      5-min Rain = 0
KST1 171850Z 04005KT 12/M05 A3013 RMK A01 T01221052  RH  030%=      5-min Rain = 0
KST1 171855Z 04005KT 13/M05 A3013 RMK A01 T01251049  RH  030%=      5-min Rain = 0
KST1 171900Z 03006KT 12/M05 A3013 RMK A01 T01241051  RH  029%=      5-min Rain = 0
KST1 171905Z 05004KT 13/M05 A3013 RMK A01 T01281047  RH  029%=      5-min Rain = 0
KST1 171910Z 03005KT 13/M05 A3013 RMK A01 T01301048  RH  029%=      5-min Rain = 0
KST1 171915Z 03005KT 13/M05 A3012 RMK A01 T01311047  RH  029%=      5-min Rain = 0
KST1 171920Z 04004KT 13/M05 A3012 RMK A01 T01311054  RH  028%=      5-min Rain = 0
KST1 171925Z 02004KT 13/M05 A3012 RMK A01 T01321048  RH  028%=      5-min Rain = 0
KST1 171930Z 02005KT 14/M05 A3011 RMK A01 T01361047  RH  028%=      5-min Rain = 0
KST1 171935Z 02004KT 14/M05 A3011 RMK A01 T01351048  RH  028%=      5-min Rain = 0
KST1 171940Z 02004KT 14/M05 A3011 RMK A01 T01361046  RH  028%=      5-min Rain = 0
KST1 171945Z 01003KT 14/M05 A3011 RMK A01 T01361047  RH  028%=      5-min Rain = 0
KST1 171950Z 06004KT 14/M04 A3011 RMK A01 T01421042  RH  028%=      5-min Rain = 0
KST1 171955Z 10002KT 14/M05 A301 RMK A01 T01381046  RH  028%=      5-min Rain = 0
KST1 172000Z 07002KT 14/M04 A301 RMK A01 T01421043  RH  028%=      5-min Rain = 0
KST1 172005Z 02005KT 14/M05 A301 RMK A01 T01401048  RH  027%=      5-min Rain = 0
KST1 172010Z 03002KT 14/M05 A301 RMK A01 T01401048  RH  027%=      5-min Rain = 0
KST1 172015Z 09002KT 14/M05 A301 RMK A01 T01411048  RH  027%=      5-min Rain = 0
KST1 172020Z 11001KT 15/M05 A3009 RMK A01 T01471047  RH  026%=      5-min Rain = 0
KST1 172025Z 03003KT 15/M05 A3009 RMK A01 T01471049  RH  026%=      5-min Rain = 0
KST1 172030Z 18001KT 15/M05 A3009 RMK A01 T01461053  RH  025%=      5-min Rain = 0
KST1 172035Z 34003KT 15/M05 A3009 RMK A01 T01451051  RH  026%=      5-min Rain = 0
KST1 172040Z 32003KT 14/M05 A3008 RMK A01 T01421052  RH  026%=      5-min Rain = 0
KST1 172045Z 31003KT 15/M05 A3008 RMK A01 T01451050  RH  026%=      5-min Rain = 0
KST1 172050Z 28002KT 15/M05 A3008 RMK A01 T01471051  RH  025%=      5-min Rain = 0
KST1 172055Z 22002KT 15/M05 A3008 RMK A01 T01501051  RH  025%=      5-min Rain = 0
KST1 172100Z 01002KT 15/M05 A3008 RMK A01 T01501052  RH  025%=      5-min Rain = 0
KST1 172105Z 01004KT 15/M06 A3008 RMK A01 T01461056  RH  025%=      5-min Rain = 0
KST1 172110Z 03002KT 15/M06 A3007 RMK A01 T01461055  RH  025%=      5-min Rain = 0
KST1 172115Z 32002KT 15/M05 A3007 RMK A01 T01511053  RH  024%=      5-min Rain = 0
KST1 172120Z 07001KT 15/M05 A3007 RMK A01 T01511054  RH  024%=      5-min Rain = 0
KST1 172125Z 11002G7KT 15/M05 A3007 RMK A01 T01501050  RH  025%=      5-min Rain = 0
KST1 172130Z 09005KT 15/M05 A3007 RMK A01 T01491049  RH  025%=      5-min Rain = 0
KST1 172135Z 09005KT 15/M05 A3007 RMK A01 T01471049  RH  026%=      5-min Rain = 0
KST1 172140Z 08004KT 15/M05 A3007 RMK A01 T01481051  RH  025%=      5-min Rain = 0
KST1 172145Z 06004KT 15/M05 A3007 RMK A01 T01471054  RH  025%=      5-min Rain = 0
KST1 172150Z 09002KT 15/M05 A3006 RMK A01 T01501052  RH  025%=      5-min Rain = 0
KST1 172155Z 04002KT 15/M06 A3006 RMK A01 T01501058  RH  024%=      5-min Rain = 0
KST1 172200Z 00001KT 15/M06 A3006 RMK A01 T01491058  RH  024%=      5-min Rain = 0
KST1 172205Z 34000KT 15/M06 A3006 RMK A01 T01531055  RH  024%=      5-min Rain = 0
KST1 172210Z 17002KT 16/M06 A3006 RMK A01 T01571056  RH  023%=      5-min Rain = 0
KST1 172215Z 21001KT 16/M06 A3006 RMK A01 T01591055  RH  023%=      5-min Rain = 0
KST1 172220Z 20001KT 16/M05 A3006 RMK A01 T01631054  RH  022%=      5-min Rain = 0
KST1 172225Z 15003KT 16/M05 A3006 RMK A01 T01591053  RH  023%=      5-min Rain = 0
KST1 172230Z 15002KT 15/M06 A3006 RMK A01 T01541056  RH  023%=      5-min Rain = 0
KST1 172235Z 17002KT 15/M05 A3006 RMK A01 T01541054  RH  024%=      5-min Rain = 0
KST1 172240Z 15001KT 15/M06 A3006 RMK A01 T01541056  RH  023%=      5-min Rain = 0
KST1 172245Z 11000KT 16/M05 A3006 RMK A01 T01561054  RH  023%=      5-min Rain = 0
KST1 172250Z 11002KT 16/M06 A3006 RMK A01 T01561055  RH  023%=      5-min Rain = 0
KST1 172255Z 07000KT 15/M06 A3007 RMK A01 T01541056  RH  023%=      5-min Rain = 0
KST1 172300Z 17001KT 16/M05 A3007 RMK A01 T01601054  RH  023%=      5-min Rain = 0
KST1 172305Z 17001KT 16/M06 A3007 RMK A01 T01571057  RH  023%=      5-min Rain = 0
KST1 172310Z 19000KT 16/M06 A3007 RMK A01 T01601056  RH  023%=      5-min Rain = 0
KST1 172315Z 24000KT 16/M06 A3007 RMK A01 T01621056  RH  022%=      5-min Rain = 0
KST1 172320Z 34000KT 16/M06 A3007 RMK A01 T01571058  RH  023%=      5-min Rain = 0
KST1 172325Z 31002KT 15/M05 A3007 RMK A01 T01531051  RH  024%=      5-min Rain = 0
KST1 172330Z 33002KT 15/M05 A3007 RMK A01 T01461049  RH  026%=      5-min Rain = 0
KST1 172335Z 36002KT 14/M05 A3007 RMK A01 T01431050  RH  026%=      5-min Rain = 0
KST1 172340Z 02002KT 14/M05 A3007 RMK A01 T01411050  RH  027%=      5-min Rain = 0
KST1 172345Z 01002KT 14/M05 A3007 RMK A01 T01371049  RH  027%=      5-min Rain = 0
KST1 172350Z 01002KT 14/M05 A3007 RMK A01 T01361049  RH  028%=      5-min Rain = 0
KST1 172355Z 34003KT 13/M05 A3007 RMK A01 T01331047  RH  029%=      5-min Rain = 0
KST1 180000Z 34003KT 13/M05 A3007 RMK A01 T01301049  RH  029%=      5-min Rain = 0
KST1 180005Z 35004KT 13/M05 A3007 RMK A01 T01261046  RH  030%=      5-min Rain = 0
KST1 180010Z 36005KT 12/M05 A3007 RMK A01 T01151046  RH  032%=      5-min Rain = 0
KST1 180015Z 35004KT 11/M05 A3007 RMK A01 T01061046  RH  035%=      5-min Rain = 0
KST1 180020Z 00004KT 10/M05 A3007 RMK A01 T01041045  RH  035%=      5-min Rain = 0
KST1 180025Z 01005KT 10/M05 A3007 RMK A01 T00981045  RH  037%=      5-min Rain = 0
KST1 180030Z 02005KT 10/M05 A3008 RMK A01 T00971048  RH  036%=      5-min Rain = 0
KST1 180035Z 02005KT 09/M05 A3008 RMK A01 T00901050  RH  037%=      5-min Rain = 0
KST1 180040Z 01006KT 09/M05 A3008 RMK A01 T00871051  RH  038%=      5-min Rain = 0
KST1 180045Z 02006KT 08/M05 A3008 RMK A01 T00781050  RH  040%=      5-min Rain = 0
KST1 180050Z 02007KT 08/M05 A3008 RMK A01 T00801047  RH  041%=      5-min Rain = 0
KST1 180055Z 03007KT 08/M05 A3008 RMK A01 T00751047  RH  042%=      5-min Rain = 0
KST1 180100Z 03007KT 07/M05 A3008 RMK A01 T00711047  RH  043%=      5-min Rain = 0
KST1 180105Z 03008KT 07/M05 A3008 RMK A01 T00711048  RH  043%=      5-min Rain = 0
KST1 180110Z 03008KT 07/M05 A3008 RMK A01 T00701048  RH  043%=      5-min Rain = 0
KST1 180115Z 03008KT 07/M05 A3008 RMK A01 T00681047  RH  044%=      5-min Rain = 0
KST1 180120Z 04008KT 06/M05 A3008 RMK A01 T00641045  RH  046%=      5-min Rain = 0
KST1 180125Z 04008KT 06/M04 A3008 RMK A01 T00611044  RH  048%=      5-min Rain = 0
KST1 180130Z 05008KT 06/M04 A3008 RMK A01 T00621044  RH  047%=      5-min Rain = 0
KST1 180135Z 05009KT 06/M04 A3008 RMK A01 T00581044  RH  048%=      5-min Rain = 0
KST1 180140Z 06009KT 06/M04 A3008 RMK A01 T00581039  RH  050%=      5-min Rain = 0
KST1 180145Z 06007KT 06/M04 A3008 RMK A01 T00611038  RH  050%=      5-min Rain = 0
KST1 180150Z 07007KT 06/M04 A3008 RMK A01 T00621037  RH  050%=      5-min Rain = 0
KST1 180155Z 08006KT 06/M03 A3008 RMK A01 T00641034  RH  050%=      5-min Rain = 0
KST1 180200Z 09006KT 06/M03 A3008 RMK A01 T00611034  RH  051%=      5-min Rain = 0
KST1 180205Z 09007KT 06/M04 A3008 RMK A01 T00551038  RH  052%=      5-min Rain = 0
KST1 180210Z 09008KT 05/M04 A3008 RMK A01 T00541039  RH  052%=      5-min Rain = 0
KST1 180215Z 10008KT 05/M04 A3008 RMK A01 T00511041  RH  052%=      5-min Rain = 0
KST1 180220Z 09009KT 04/M04 A3008 RMK A01 T00441042  RH  054%=      5-min Rain = 0
KST1 180225Z 09009KT 05/M04 A3008 RMK A01 T00471038  RH  055%=      5-min Rain = 0
KST1 180230Z 09010KT 05/M04 A3008 RMK A01 T00451037  RH  056%=      5-min Rain = 0
KST1 180235Z 10010KT 04/M04 A3008 RMK A01 T00411038  RH  057%=      5-min Rain = 0
KST1 180240Z 10008KT 04/M04 A3008 RMK A01 T00391037  RH  058%=      5-min Rain = 0
KST1 180245Z 10008KT 04/M04 A3007 RMK A01 T00351038  RH  059%=      5-min Rain = 0
KST1 180250Z 10008KT 04/M04 A3007 RMK A01 T00361037  RH  059%=      5-min Rain = 0
KST1 180255Z 10008KT 04/M04 A3007 RMK A01 T00361037  RH  060%=      5-min Rain = 0
KST1 180300Z 11007KT 04/M04 A3007 RMK A01 T00361036  RH  060%=      5-min Rain = 0
KST1 180305Z 11007KT 04/M04 A3008 RMK A01 T00361037  RH  060%=      5-min Rain = 0
KST1 180310Z 11006KT 04/M04 A3008 RMK A01 T00361036  RH  060%=      5-min Rain = 0
KST1 180315Z 10006KT 04/M04 A3008 RMK A01 T00391035  RH  059%=      5-min Rain = 0
KST1 180320Z 10007KT 04/M03 A3008 RMK A01 T00431033  RH  058%=      5-min Rain = 0
KST1 180325Z 10008KT 04/M04 A3008 RMK A01 T00401035  RH  059%=      5-min Rain = 0
KST1 180330Z 09006KT 03/M04 A3007 RMK A01 T00301037  RH  062%=      5-min Rain = 0
KST1 180335Z 10008KT 03/M04 A3007 RMK A01 T00301035  RH  063%=      5-min Rain = 0
KST1 180340Z 09009KT 03/M04 A3007 RMK A01 T00301035  RH  063%=      5-min Rain = 0
KST1 180345Z 09007KT 03/M04 A3007 RMK A01 T00301035  RH  063%=      5-min Rain = 0
KST1 180350Z 10007KT 03/M04 A3007 RMK A01 T00271037  RH  063%=      5-min Rain = 0
KST1 180355Z 10007KT 02/M04 A3007 RMK A01 T00191040  RH  066%=      5-min Rain = 0
KST1 180400Z 12008KT 02/M04 A3006 RMK A01 T00181039  RH  067%=      5-min Rain = 0
KST1 180405Z 12008KT 02/M04 A3007 RMK A01 T00161039  RH  067%=      5-min Rain = 0
KST1 180410Z 12007KT 02/M04 A3007 RMK A01 T00201037  RH  066%=      5-min Rain = 0
KST1 180415Z 11007KT 02/M04 A3007 RMK A01 T00211037  RH  066%=      5-min Rain = 0
KST1 180420Z 11007KT 02/M04 A3006 RMK A01 T00211038  RH  066%=      5-min Rain = 0
KST1 180425Z 12007KT 02/M04 A3006 RMK A01 T00181040  RH  066%=      5-min Rain = 0
KST1 180430Z 11007KT 02/M04 A3006 RMK A01 T00161038  RH  068%=      5-min Rain = 0
KST1 180435Z 11007KT 02/M04 A3006 RMK A01 T00161037  RH  069%=      5-min Rain = 0
KST1 180440Z 12007KT 02/M04 A3006 RMK A01 T00161039  RH  068%=      5-min Rain = 0
KST1 180445Z 11007KT 02/M04 A3006 RMK A01 T00151038  RH  069%=      5-min Rain = 0
KST1 180450Z 12007KT 02/M04 A3006 RMK A01 T00171037  RH  068%=      5-min Rain = 0
KST1 180455Z 12007KT 02/M04 A3006 RMK A01 T00171038  RH  068%=      5-min Rain = 0
KST1 180500Z 12007KT 01/M04 A3006 RMK A01 T00141039  RH  069%=      5-min Rain = 0
KST1 180505Z 12007KT 01/M04 A3005 RMK A01 T00111040  RH  070%=      5-min Rain = 0
KST1 180510Z 12007KT 01/M04 A3005 RMK A01 T00101039  RH  071%=      5-min Rain = 0
KST1 180515Z 12007KT 01/M04 A3005 RMK A01 T00111038  RH  071%=      5-min Rain = 0
KST1 180520Z 13008KT 01/M04 A3005 RMK A01 T00111040  RH  069%=      5-min Rain = 0
KST1 180525Z 13008KT 01/M04 A3005 RMK A01 T00081042  RH  070%=      5-min Rain = 0
KST1 180530Z 14009KT 01/M04 A3005 RMK A01 T00071041  RH  071%=      5-min Rain = 0
KST1 180535Z 14008KT 01/M04 A3005 RMK A01 T00071040  RH  071%=      5-min Rain = 0
KST1 180540Z 15007KT 01/M04 A3005 RMK A01 T00071039  RH  072%=      5-min Rain = 0
KST1 180545Z 15007KT 01/M04 A3005 RMK A01 T00091038  RH  072%=      5-min Rain = 0
KST1 180550Z 15008KT 01/M04 A3005 RMK A01 T00081039  RH  072%=      5-min Rain = 0
KST1 180555Z 15008KT 01/M04 A3004 RMK A01 T00081041  RH  071%=      5-min Rain = 0

Page generated in 0.035 seconds.